Morning Sun, Arkansas
Current Conditions -  °F | °C
As of 9:56 AM on Thursday 23 Oct 2014 (Local Time) from KSRC Reporting Station
Clear Clear  
Wind Chill: 50°   Ceiling: Unl
Heat Index: 50°   Visibility: 10mi
Dew Point: 46°   Wind: 5mph
Humidity: 86%   Direction: 350°N
Pressure: 30.24"   Gusts: NA
Location:  35.2662°N, 91.8491°W
Report Text: KSRC 231456Z AUTO 35004KT 10SM CLR 10/08 A3024 RMK AO2 SLP249 T01000078 53010 TSNO
Loading
Personal Weather Stations






























Interactive Weather Map
Tropical Storm Tracking
New forecast layout! Learn more

10-Day Weather Forecast

Advertisements
Track Severe Weather on mobile